createdAt,value
2018-12-29T00:03:06.348Z,95287.03
2018-12-29T00:05:34.902Z,95290.08
2018-12-29T00:08:03.459Z,95295.08
2018-12-29T00:10:32.406Z,95296.44
2018-12-29T00:13:01.056Z,95299.08
2018-12-29T00:15:29.526Z,95304.41
2018-12-29T00:17:58.230Z,95305.00
2018-12-29T00:20:26.856Z,95306.77
2018-12-29T00:22:55.482Z,95305.00
2018-12-29T00:25:24.315Z,95307.79
2018-12-29T00:27:52.861Z,95308.04
2018-12-29T00:30:21.476Z,95309.80
2018-12-29T00:32:50.385Z,95311.70
2018-12-29T00:35:18.881Z,95298.11
2018-12-29T00:37:47.362Z,95308.84
2018-12-29T00:40:16.238Z,95312.48
2018-12-29T00:42:44.889Z,95305.80
2018-12-29T00:45:13.434Z,95304.48
2018-12-29T00:47:42.593Z,95307.92
2018-12-29T00:50:11.201Z,95309.92
2018-12-29T00:52:39.825Z,95304.05
2018-12-29T00:55:08.383Z,95308.38
2018-12-29T00:57:37.002Z,95311.88
2018-12-29T01:00:07.238Z,95310.03
2018-12-29T01:02:35.809Z,95315.88
2018-12-29T01:05:04.887Z,95319.37
2018-12-29T01:07:33.706Z,95319.70
2018-12-29T01:10:02.199Z,95313.16
2018-12-29T01:12:30.665Z,95320.36
2018-12-29T01:14:59.312Z,95321.20
2018-12-29T01:17:27.923Z,95325.65
2018-12-29T01:19:56.594Z,95322.11
2018-12-29T01:22:25.428Z,95327.16
2018-12-29T01:24:54.044Z,95322.06
2018-12-29T01:27:22.661Z,95314.49
2018-12-29T01:29:51.462Z,95315.41
2018-12-29T01:32:20.023Z,95326.61
2018-12-29T01:34:48.647Z,95320.84
2018-12-29T01:37:17.335Z,95314.77
2018-12-29T01:39:45.954Z,95309.91
2018-12-29T01:42:14.576Z,95314.77
2018-12-29T01:44:43.480Z,95316.59
2018-12-29T01:47:12.042Z,95308.44
2018-12-29T01:49:40.661Z,95302.81
2018-12-29T01:52:09.630Z,95306.55
2018-12-29T01:54:38.180Z,95307.91
2018-12-29T01:57:06.775Z,95313.66
2018-12-29T01:59:35.434Z,95297.94
2018-12-29T02:02:04.697Z,95296.64
2018-12-29T02:04:33.192Z,95303.77
2018-12-29T02:07:01.961Z,95294.19
2018-12-29T02:09:30.574Z,95298.45
2018-12-29T02:11:59.211Z,95296.91
2018-12-29T02:14:27.917Z,95293.40
2018-12-29T02:16:56.571Z,95293.77
2018-12-29T02:19:25.121Z,95288.03
2018-12-29T02:21:53.651Z,95294.23
2018-12-29T02:24:22.282Z,95286.48
2018-12-29T02:26:50.903Z,95287.04
2018-12-29T02:29:19.653Z,95299.42
2018-12-29T02:31:48.145Z,95304.64
2018-12-29T02:34:16.758Z,95300.27
2018-12-29T02:36:45.671Z,95299.49
2018-12-29T02:39:14.172Z,95300.78
2018-12-29T02:41:42.730Z,95301.80
2018-12-29T02:44:11.370Z,95295.83
2018-12-29T02:46:39.990Z,95294.17
2018-12-29T02:49:08.477Z,95304.05
2018-12-29T02:51:37.175Z,95288.73
2018-12-29T02:54:05.799Z,95297.73
2018-12-29T02:56:34.430Z,95280.06
2018-12-29T02:59:03.034Z,95290.41
2018-12-29T03:01:31.530Z,95289.28
2018-12-29T03:04:00.147Z,95289.13
2018-12-29T03:06:29.184Z,95295.92
2018-12-29T03:08:57.665Z,95282.03
2018-12-29T03:11:26.153Z,95286.00
2018-12-29T03:13:55.126Z,95285.19
2018-12-29T03:16:23.743Z,95280.81
2018-12-29T03:18:52.292Z,95272.34
2018-12-29T03:21:20.809Z,95282.82
2018-12-29T03:23:49.419Z,95270.83
2018-12-29T03:26:18.048Z,95270.77
2018-12-29T03:28:46.601Z,95268.83
2018-12-29T03:31:15.087Z,95260.91
2018-12-29T03:33:44.003Z,95263.73
2018-12-29T03:36:12.562Z,95278.16
2018-12-29T03:38:41.183Z,95258.37
2018-12-29T03:41:10.057Z,95270.07
2018-12-29T03:43:38.617Z,95262.97
2018-12-29T03:46:07.249Z,95264.64
2018-12-29T03:48:36.221Z,95269.48
2018-12-29T03:51:04.939Z,95279.39
2018-12-29T03:53:33.598Z,95275.20
2018-12-29T03:56:02.350Z,95268.01
2018-12-29T03:58:31.015Z,95274.86
2018-12-29T04:00:59.704Z,95288.07
2018-12-29T04:03:28.341Z,95289.03
2018-12-29T04:05:56.891Z,95290.27
2018-12-29T04:08:25.547Z,95282.36
2018-12-29T04:10:54.488Z,95288.69
2018-12-29T04:13:23.031Z,95282.58
2018-12-29T04:15:57.900Z,95287.73
2018-12-29T04:18:22.065Z,95291.99
2018-12-29T04:20:50.558Z,95285.66
2018-12-29T04:23:19.174Z,95283.13
2018-12-29T04:25:47.824Z,95296.94
2018-12-29T04:28:16.370Z,95292.70
2018-12-29T04:30:44.914Z,95291.99
2018-12-29T04:33:13.598Z,95297.70
2018-12-29T04:35:42.223Z,95297.48
2018-12-29T04:38:10.699Z,95297.18
2018-12-29T04:40:39.518Z,95298.02
2018-12-29T04:43:08.142Z,95298.87
2018-12-29T04:45:36.761Z,95307.52
2018-12-29T04:48:05.479Z,95305.45
2018-12-29T04:50:34.132Z,95314.37
2018-12-29T04:53:02.741Z,95305.98
2018-12-29T04:55:31.639Z,95314.13
2018-12-29T04:58:00.255Z,95307.45
2018-12-29T05:00:28.985Z,95325.59
2018-12-29T05:02:57.795Z,95332.62
2018-12-29T05:05:26.271Z,95319.81
2018-12-29T05:07:54.919Z,95329.48
2018-12-29T05:10:23.753Z,95332.80
2018-12-29T05:12:55.273Z,95335.09
2018-12-29T05:15:23.762Z,95338.58
2018-12-29T05:17:52.769Z,95331.98
2018-12-29T05:20:21.469Z,95338.92
2018-12-29T05:22:50.017Z,95346.14
2018-12-29T05:25:18.942Z,95338.40
2018-12-29T05:27:47.684Z,95337.88
2018-12-29T05:30:16.290Z,95351.39
2018-12-29T05:32:44.988Z,95343.13
2018-12-29T05:35:15.234Z,95348.80
2018-12-29T05:37:43.907Z,95355.29
2018-12-29T05:40:12.788Z,95360.58
2018-12-29T05:42:41.407Z,95364.93
2018-12-29T05:45:10.014Z,95364.03
2018-12-29T05:47:38.844Z,95362.20
2018-12-29T05:50:07.454Z,95353.88
2018-12-29T05:52:36.073Z,95361.69
2018-12-29T05:55:05.000Z,95364.93
2018-12-29T05:57:33.486Z,95368.82
2018-12-29T06:00:02.021Z,95366.05
2018-12-29T06:02:30.914Z,95373.61
2018-12-29T06:04:59.550Z,95371.66
2018-12-29T06:07:28.032Z,95378.23
2018-12-29T06:09:56.898Z,95378.70
2018-12-29T06:12:25.515Z,95367.83
2018-12-29T06:14:53.996Z,95369.78
2018-12-29T06:19:57.383Z,95379.41
2018-12-29T06:22:25.866Z,95376.50
2018-12-29T06:24:54.355Z,95368.88
2018-12-29T06:27:23.339Z,95385.74
2018-12-29T06:29:51.973Z,95374.96
2018-12-29T06:32:20.455Z,95378.51
2018-12-29T06:34:59.623Z,95374.50
2018-12-29T06:37:19.630Z,95379.68
2018-12-29T06:39:48.264Z,95376.44
2018-12-29T06:47:25.508Z,95377.56
2018-12-29T06:49:54.138Z,95381.08
2018-12-29T06:52:22.770Z,95388.25
2018-12-29T06:54:51.473Z,95395.22
2018-12-29T06:57:20.117Z,95389.84
2018-12-29T06:59:48.617Z,95383.00
2018-12-29T07:02:17.139Z,95385.79
2018-12-29T07:04:45.755Z,95386.38
2018-12-29T07:07:14.383Z,95389.03
2018-12-29T07:09:42.909Z,95395.83
2018-12-29T07:12:11.408Z,95396.05
2018-12-29T07:14:40.076Z,95392.48
2018-12-29T07:17:08.732Z,95388.55
2018-12-29T07:19:37.226Z,95393.78
2018-12-29T07:22:05.702Z,95394.70
2018-12-29T07:24:34.356Z,95388.86
2018-12-29T07:27:02.992Z,95398.66
2018-12-29T07:29:38.083Z,95395.79
2018-12-29T07:32:01.689Z,95387.20
2018-12-29T07:34:30.392Z,95394.05
2018-12-29T07:36:58.904Z,95392.34
2018-12-29T07:39:27.538Z,95389.78
2018-12-29T07:41:56.158Z,95393.45
2018-12-29T07:44:24.961Z,95388.20
2018-12-29T07:46:53.447Z,95384.38
2018-12-29T07:49:22.094Z,95394.02
2018-12-29T07:51:50.886Z,95392.74
2018-12-29T07:54:19.363Z,95389.17
2018-12-29T07:56:47.861Z,95384.47
2018-12-29T07:59:16.762Z,95388.44
2018-12-29T08:01:45.398Z,95398.19
2018-12-29T08:04:13.914Z,95397.20
2018-12-29T08:06:42.406Z,95398.01
2018-12-29T08:09:11.024Z,95396.50
2018-12-29T08:11:39.643Z,95390.65
2018-12-29T08:14:08.468Z,95391.28
2018-12-29T08:16:37.019Z,95406.69
2018-12-29T08:19:07.159Z,95414.53
2018-12-29T08:21:35.814Z,95407.73
2018-12-29T08:24:04.384Z,95411.33
2018-12-29T08:26:32.878Z,95411.80
2018-12-29T08:29:01.823Z,95406.14
2018-12-29T08:31:30.444Z,95404.78
2018-12-29T08:33:58.973Z,95413.20
2018-12-29T08:36:27.762Z,95408.70
2018-12-29T08:38:56.384Z,95416.82
2018-12-29T08:41:24.998Z,95414.05
2018-12-29T08:43:53.819Z,95416.48
2018-12-29T08:46:22.313Z,95414.15
2018-12-29T08:48:50.947Z,95422.68
2018-12-29T08:51:19.600Z,95425.19
2018-12-29T08:53:48.090Z,95416.00
2018-12-29T08:56:16.720Z,95423.06
2018-12-29T08:58:45.420Z,95426.14
2018-12-29T09:01:13.915Z,95418.13
2018-12-29T09:03:42.546Z,95436.73
2018-12-29T09:06:11.224Z,95421.42
2018-12-29T09:08:39.803Z,95436.66
2018-12-29T09:11:08.280Z,95436.08
2018-12-29T09:13:37.228Z,95441.97
2018-12-29T09:16:05.876Z,95445.66
2018-12-29T09:18:34.427Z,95442.35
2018-12-29T09:21:02.912Z,95448.44
2018-12-29T09:23:31.857Z,95448.19
2018-12-29T09:26:00.473Z,95445.34
2018-12-29T09:28:29.031Z,95448.44
2018-12-29T09:30:57.647Z,95443.37
2018-12-29T09:33:26.281Z,95441.23
2018-12-29T09:35:56.312Z,95442.11
2018-12-29T09:38:25.435Z,95450.17
2018-12-29T09:40:54.130Z,95442.59
2018-12-29T09:43:22.687Z,95441.30
2018-12-29T09:45:51.210Z,95455.30
2018-12-29T09:48:19.819Z,95450.52
2018-12-29T09:50:48.448Z,95443.06
2018-12-29T09:53:17.315Z,95438.61
2018-12-29T09:55:45.801Z,95442.11
2018-12-29T09:58:14.418Z,95439.17
2018-12-29T10:00:43.070Z,95433.30
2018-12-29T10:03:11.549Z,95437.50
2018-12-29T10:05:40.043Z,95431.02
2018-12-29T10:08:08.700Z,95431.00
2018-12-29T10:10:37.331Z,95440.68
2018-12-29T10:13:05.884Z,95430.74
2018-12-29T10:15:34.588Z,95434.12
2018-12-29T10:18:03.134Z,95418.20
2018-12-29T10:20:31.718Z,95425.64
2018-12-29T10:23:00.373Z,95415.35
2018-12-29T10:25:29.070Z,95417.03
2018-12-29T10:27:57.550Z,95419.63
2018-12-29T10:30:26.133Z,95418.66
2018-12-29T10:32:54.765Z,95412.47
2018-12-29T10:35:23.400Z,95427.12
2018-12-29T10:37:51.916Z,95412.33
2018-12-29T10:40:20.463Z,95409.94
2018-12-29T10:42:49.094Z,95409.55
2018-12-29T10:45:17.976Z,95411.27
2018-12-29T10:47:46.471Z,95411.17
2018-12-29T10:50:15.027Z,95416.80
2018-12-29T10:52:43.736Z,95409.36
2018-12-29T10:55:12.556Z,95407.41
2018-12-29T10:57:41.187Z,95413.02
2018-12-29T11:00:10.443Z,95410.31
2018-12-29T11:02:38.992Z,95408.00
2018-12-29T11:05:08.420Z,95402.70
2018-12-29T11:07:37.262Z,95405.15
2018-12-29T11:10:07.297Z,95401.88
2018-12-29T11:12:35.775Z,95400.83
2018-12-29T11:15:04.869Z,95405.39
2018-12-29T11:17:33.564Z,95409.53
2018-12-29T11:20:02.302Z,95416.70
2018-12-29T11:22:31.114Z,95408.42
2018-12-29T11:24:59.745Z,95410.50
2018-12-29T11:27:28.369Z,95402.27
2018-12-29T11:29:57.381Z,95405.46
2018-12-29T11:32:25.870Z,95413.20
2018-12-29T11:34:54.487Z,95414.70
2018-12-29T11:37:23.243Z,95404.75
2018-12-29T11:39:51.722Z,95414.70
2018-12-29T11:42:20.373Z,95413.09
2018-12-29T11:44:49.279Z,95421.83
2018-12-29T11:47:17.781Z,95410.95
2018-12-29T11:49:46.418Z,95408.73
2018-12-29T11:52:21.147Z,95420.25
2018-12-29T11:54:49.773Z,95424.67
2018-12-29T11:57:18.268Z,95431.22
2018-12-29T11:59:46.796Z,95426.44
2018-12-29T12:02:15.481Z,95427.15
2018-12-29T12:04:44.440Z,95432.25
2018-12-29T12:07:13.395Z,95441.30
2018-12-29T12:09:41.938Z,95427.05
2018-12-29T12:12:10.569Z,95439.81
2018-12-29T12:14:39.456Z,95443.25
2018-12-29T12:17:08.363Z,95442.07
2018-12-29T12:19:36.993Z,95448.75
2018-12-29T12:22:05.570Z,95449.03
2018-12-29T12:24:34.065Z,95447.33
2018-12-29T12:27:02.745Z,95448.56
2018-12-29T12:29:31.659Z,95452.45
2018-12-29T12:32:00.141Z,95455.95
2018-12-29T12:34:28.627Z,95456.53
2018-12-29T12:36:57.633Z,95463.27
2018-12-29T12:39:26.273Z,95463.81
2018-12-29T12:41:54.842Z,95467.58
2018-12-29T12:44:23.421Z,95466.16
2018-12-29T12:46:52.042Z,95466.16
2018-12-29T12:49:20.654Z,95468.86
2018-12-29T12:51:49.414Z,95469.98
2018-12-29T12:54:18.045Z,95473.60
2018-12-29T12:56:46.600Z,95470.35
2018-12-29T12:59:15.791Z,95478.51
2018-12-29T13:01:44.701Z,95477.20
2018-12-29T13:04:13.320Z,95482.88
2018-12-29T13:06:41.839Z,95481.60
2018-12-29T13:09:10.690Z,95487.47
2018-12-29T13:11:39.306Z,95483.68
2018-12-29T13:14:07.977Z,95475.50
2018-12-29T13:16:36.456Z,95490.09
2018-12-29T13:19:05.024Z,95497.72
2018-12-29T13:21:34.047Z,95501.61
2018-12-29T13:24:02.663Z,95512.66
2018-12-29T13:26:31.139Z,95499.61
2018-12-29T13:28:59.901Z,95505.18
2018-12-29T13:31:28.531Z,95499.22
2018-12-29T13:33:57.525Z,95510.56
2018-12-29T13:36:26.482Z,95512.86
2018-12-29T13:38:55.113Z,95511.87
2018-12-29T13:41:23.745Z,95503.63
2018-12-29T13:43:52.629Z,95513.39
2018-12-29T13:46:21.391Z,95517.86
2018-12-29T13:48:49.876Z,95509.31
2018-12-29T13:51:18.787Z,95516.06
2018-12-29T13:53:47.405Z,95509.76
2018-12-29T13:56:16.035Z,95507.28
2018-12-29T13:58:45.849Z,95517.56
2018-12-29T14:01:14.449Z,95524.02
2018-12-29T14:03:43.111Z,95521.70
2018-12-29T14:06:11.611Z,95535.92
2018-12-29T14:08:40.237Z,95539.25
2018-12-29T14:11:08.791Z,95532.31
2018-12-29T14:13:37.444Z,95544.69
2018-12-29T14:16:06.061Z,95540.32
2018-12-29T14:18:34.630Z,95543.44
2018-12-29T14:21:03.284Z,95543.71
2018-12-29T14:23:31.847Z,95542.02
2018-12-29T14:26:00.462Z,95539.78
2018-12-29T14:28:29.380Z,95545.51
2018-12-29T14:30:57.944Z,95548.69
2018-12-29T14:33:26.579Z,95550.55
2018-12-29T14:35:55.247Z,95545.66
2018-12-29T14:38:23.803Z,95549.81
2018-12-29T14:40:52.422Z,95549.71
2018-12-29T14:43:21.003Z,95553.09
2018-12-29T14:45:49.632Z,95553.28
2018-12-29T14:48:18.183Z,95557.13
2018-12-29T14:50:46.783Z,95559.88
2018-12-29T14:53:15.335Z,95562.98
2018-12-29T14:55:44.106Z,95562.86
2018-12-29T14:58:12.956Z,95559.77
2018-12-29T15:00:41.574Z,95569.08
2018-12-29T15:03:10.516Z,95566.40
2018-12-29T15:05:39.081Z,95575.94
2018-12-29T15:08:07.702Z,95573.33
2018-12-29T15:10:36.740Z,95577.17
2018-12-29T15:13:08.720Z,95587.33
2018-12-29T15:15:37.286Z,95584.91
2018-12-29T15:18:06.682Z,95594.59
2018-12-29T15:20:35.766Z,95590.45
2018-12-29T15:23:04.692Z,95597.31
2018-12-29T15:25:33.541Z,95602.77
2018-12-29T15:28:02.203Z,95605.61
2018-12-29T15:30:30.825Z,95608.06
2018-12-29T15:32:59.591Z,95613.36
2018-12-29T15:35:28.212Z,95616.84
2018-12-29T15:37:57.141Z,95611.20
2018-12-29T15:40:25.951Z,95614.62
2018-12-29T15:42:54.516Z,95615.84
2018-12-29T15:45:23.513Z,95621.56
2018-12-29T15:47:52.423Z,95621.95
2018-12-29T15:50:21.073Z,95626.57
2018-12-29T15:52:50.009Z,95631.02
2018-12-29T15:55:19.001Z,95633.99
2018-12-29T15:57:47.558Z,95638.51
2018-12-29T16:00:16.110Z,95640.36
2018-12-29T16:02:44.959Z,95637.12
2018-12-29T16:05:13.596Z,95636.34
2018-12-29T16:07:42.543Z,95643.81
2018-12-29T16:10:11.409Z,95642.88
2018-12-29T16:12:40.043Z,95650.23
2018-12-29T16:15:09.144Z,95641.19
2018-12-29T16:17:38.099Z,95638.09
2018-12-29T16:20:06.708Z,95645.09
2018-12-29T16:22:35.267Z,95646.42
2018-12-29T16:25:03.805Z,95644.13
2018-12-29T16:27:32.368Z,95650.52
2018-12-29T16:30:01.042Z,95642.77
2018-12-29T16:32:29.665Z,95655.00
2018-12-29T16:34:58.154Z,95654.97
2018-12-29T16:37:27.013Z,95663.75
2018-12-29T16:39:55.701Z,95662.78
2018-12-29T16:42:24.640Z,95666.23
2018-12-29T16:44:53.431Z,95656.50
2018-12-29T16:47:21.989Z,95656.72
2018-12-29T16:49:50.619Z,95666.45
2018-12-29T16:52:19.686Z,95659.06
2018-12-29T16:54:48.348Z,95667.06
2018-12-29T16:57:16.906Z,95667.47
2018-12-29T16:59:45.739Z,95678.30
2018-12-29T17:02:14.674Z,95675.75
2018-12-29T17:04:43.298Z,95679.84
2018-12-29T17:10:34.307Z,95677.95
2018-12-29T17:13:03.246Z,95680.48
2018-12-29T17:15:31.873Z,95684.56
2018-12-29T17:18:00.974Z,95679.68
2018-12-29T17:20:29.695Z,95674.42
2018-12-29T17:22:58.315Z,95677.94
2018-12-29T17:25:26.950Z,95679.68
2018-12-29T17:27:55.685Z,95677.74
2018-12-29T17:30:24.287Z,95680.03
2018-12-29T17:32:52.846Z,95676.56
2018-12-29T17:35:21.555Z,95681.38
2018-12-29T17:37:50.148Z,95679.83
2018-12-29T17:40:18.856Z,95676.53
2018-12-29T17:42:47.777Z,95684.45
2018-12-29T17:45:52.345Z,95679.22
2018-12-29T17:48:20.940Z,95672.22
2018-12-29T17:50:49.562Z,95675.31
2018-12-29T17:53:18.306Z,95678.05
2018-12-29T17:55:46.822Z,95681.71
2018-12-29T17:58:15.433Z,95680.60
2018-12-29T18:00:44.087Z,95682.53
2018-12-29T18:03:13.595Z,95690.12
2018-12-29T18:05:42.242Z,95685.03
2018-12-29T18:08:10.877Z,95684.88
2018-12-29T18:10:39.470Z,95679.83
2018-12-29T18:13:08.037Z,95675.00
2018-12-29T18:15:36.655Z,95676.87
2018-12-29T18:18:05.600Z,95680.02
2018-12-29T18:20:34.459Z,95681.03
2018-12-29T18:23:03.015Z,95680.26
2018-12-29T18:25:32.074Z,95684.16
2018-12-29T18:28:00.640Z,95680.23
2018-12-29T18:30:29.508Z,95680.45
2018-12-29T18:32:58.441Z,95686.50
2018-12-29T18:35:27.066Z,95682.41
2018-12-29T18:37:55.654Z,95682.77
2018-12-29T18:40:24.405Z,95686.67
2018-12-29T18:42:52.956Z,95681.08
2018-12-29T18:45:23.052Z,95688.03
2018-12-29T18:47:51.868Z,95682.82
2018-12-29T18:50:20.353Z,95683.36
2018-12-29T18:52:48.976Z,95668.32
2018-12-29T18:55:17.648Z,95671.59
2018-12-29T18:57:46.449Z,95670.41
2018-12-29T19:00:15.308Z,95674.83
2018-12-29T19:02:43.873Z,95679.91
2018-12-29T19:05:12.498Z,95683.03
2018-12-29T19:07:41.356Z,95684.61
2018-12-29T19:10:10.164Z,95679.89
2018-12-29T19:12:38.725Z,95679.75
2018-12-29T19:15:07.685Z,95679.75
2018-12-29T19:17:36.692Z,95680.88
2018-12-29T19:20:07.695Z,95680.09
2018-12-29T19:22:36.657Z,95690.59
2018-12-29T19:25:05.478Z,95685.55
2018-12-29T19:27:34.046Z,95690.03
2018-12-29T19:30:02.955Z,95684.97
2018-12-29T19:32:31.534Z,95677.20
2018-12-29T19:35:00.393Z,95678.34
2018-12-29T19:37:29.596Z,95678.17
2018-12-29T19:39:58.413Z,95680.33
2018-12-29T19:42:27.047Z,95688.78
2018-12-29T19:44:55.943Z,95688.17
2018-12-29T19:47:24.585Z,95685.05
2018-12-29T19:49:53.899Z,95690.67
2018-12-29T19:52:22.666Z,95686.55
2018-12-29T19:54:51.284Z,95685.27
2018-12-29T19:57:20.122Z,95687.28
2018-12-29T19:59:49.071Z,95692.48
2018-12-29T20:02:17.911Z,95691.12
2018-12-29T20:04:46.858Z,95687.23
2018-12-29T20:07:21.531Z,95694.40
2018-12-29T20:09:50.074Z,95693.43
2018-12-29T20:12:18.628Z,95694.68
2018-12-29T20:14:47.531Z,95687.73
2018-12-29T20:17:16.105Z,95685.77
2018-12-29T20:19:44.581Z,95692.72
2018-12-29T20:22:13.391Z,95679.94
2018-12-29T20:24:42.027Z,95689.42
2018-12-29T20:27:10.592Z,95702.59
2018-12-29T20:29:39.342Z,95696.44
2018-12-29T20:32:07.907Z,95698.31
2018-12-29T20:34:36.559Z,95692.13
2018-12-29T20:37:05.491Z,95693.70
2018-12-29T20:42:26.114Z,95695.27
2018-12-29T20:44:54.743Z,95691.02
2018-12-29T20:47:23.320Z,95699.91
2018-12-29T20:49:52.163Z,95703.80
2018-12-29T20:52:20.787Z,95710.34
2018-12-29T20:54:49.342Z,95711.92
2018-12-29T20:57:18.132Z,95716.77
2018-12-29T20:59:46.765Z,95714.44
2018-12-29T21:02:15.377Z,95709.97
2018-12-29T21:04:44.158Z,95715.18
2018-12-29T21:07:12.705Z,95718.88
2018-12-29T21:09:41.714Z,95710.17
2018-12-29T21:12:10.637Z,95715.18
2018-12-29T21:14:39.139Z,95710.97
2018-12-29T21:17:07.686Z,95713.06
2018-12-29T21:19:36.615Z,95703.59
2018-12-29T21:22:05.235Z,95711.25
2018-12-29T21:24:33.843Z,95711.72
2018-12-29T21:27:02.744Z,95711.35
2018-12-29T21:29:31.300Z,95718.61
2018-12-29T21:31:59.878Z,95718.42
2018-12-29T21:34:28.926Z,95717.86
2018-12-29T21:36:57.472Z,95714.20
2018-12-29T21:39:25.959Z,95714.58
2018-12-29T21:41:54.561Z,95712.22
2018-12-29T21:44:23.205Z,95708.15
2018-12-29T21:46:51.751Z,95700.84
2018-12-29T21:49:20.611Z,95695.64
2018-12-29T21:51:49.447Z,95696.82
2018-12-29T21:54:18.078Z,95693.70
2018-12-29T21:56:46.666Z,95684.39
2018-12-29T21:59:15.312Z,95680.34
2018-12-29T22:01:43.874Z,95689.63
2018-12-29T22:04:13.236Z,95682.48
2018-12-29T22:06:41.801Z,95680.66
2018-12-29T22:09:10.360Z,95681.90
2018-12-29T22:11:39.307Z,95677.20
2018-12-29T22:14:07.790Z,95677.22
2018-12-29T22:16:36.362Z,95681.53
2018-12-29T22:19:05.376Z,95683.25
2018-12-29T22:21:33.939Z,95678.75
2018-12-29T22:24:02.725Z,95670.04
2018-12-29T22:26:31.290Z,95665.37
2018-12-29T22:28:59.925Z,95669.19
2018-12-29T22:31:28.482Z,95662.85
2018-12-29T22:33:56.963Z,95658.71
2018-12-29T22:36:27.134Z,95655.66
2018-12-29T22:38:55.833Z,95652.39
2018-12-29T22:41:24.752Z,95655.30
2018-12-29T22:43:53.306Z,95649.58
2018-12-29T22:46:21.865Z,95651.28
2018-12-29T22:48:50.418Z,95643.92
2018-12-29T22:51:19.043Z,95643.19
2018-12-29T22:53:47.848Z,95641.23
2018-12-29T22:56:16.393Z,95640.65
2018-12-29T22:58:45.263Z,95638.52
2018-12-29T23:01:13.816Z,95630.05
2018-12-29T23:03:42.436Z,95625.13
2018-12-29T23:06:11.309Z,95623.12
2018-12-29T23:08:39.853Z,95626.90
2018-12-29T23:11:08.790Z,95619.37
2018-12-29T23:13:37.662Z,95615.42
2018-12-29T23:16:06.403Z,95616.61
2018-12-29T23:18:34.897Z,95611.60
2018-12-29T23:21:03.642Z,95612.95
2018-12-29T23:23:32.284Z,95612.77
2018-12-29T23:26:01.244Z,95615.09
2018-12-29T23:28:30.181Z,95612.38
2018-12-29T23:30:58.916Z,95612.77
2018-12-29T23:33:27.404Z,95612.95
2018-12-29T23:35:55.997Z,95610.80
2018-12-29T23:38:24.625Z,95613.78
2018-12-29T23:40:53.251Z,95611.67
2018-12-29T23:43:21.776Z,95615.33
2018-12-29T23:45:50.334Z,95618.37
2018-12-29T23:48:18.960Z,95617.53
2018-12-29T23:50:47.561Z,95610.03
2018-12-29T23:53:16.035Z,95615.89
2018-12-29T23:55:45.030Z,95617.19
2018-12-29T23:58:13.888Z,95618.33
